Armstrong, Texas
Current Conditions -  °F | °C
As of 8:35 PM on Tuesday 21 Oct 2014 (Local Time) from KBKS Reporting Station
Clear Clear  
Wind Chill: 75°   Ceiling: Unl
Heat Index: 75°   Visibility: 10mi
Dew Point: 69°   Wind: 8mph
Humidity: 81%   Direction: 60°ENE
Pressure: 29.96"   Gusts: NA
Location:  26.92°N, 97.79°W
Report Text: KBKS 220135Z AUTO 06007KT 10SM CLR 24/21 A2996 RMK AO1 T02400205
Loading
Personal Weather Stations






























Interactive Weather Map New forecast layout! Learn more

10-Day Weather Forecast

Advertisements
Track Severe Weather on mobile